createdAt,value
2023-03-29T00:00:51.424Z,14.85
2023-03-29T00:03:19.150Z,1.77
2023-03-29T00:05:46.445Z,5.88
2023-03-29T00:08:14.788Z,5.22
2023-03-29T00:10:42.538Z,5.00
2023-03-29T00:13:09.516Z,6.00
2023-03-29T00:15:36.457Z,7.65
2023-03-29T00:18:03.571Z,7.45
2023-03-29T00:20:30.681Z,7.45
2023-03-29T00:22:58.018Z,4.30
2023-03-29T00:25:25.102Z,4.90
2023-03-29T00:27:52.084Z,4.38
2023-03-29T00:30:19.459Z,5.13
2023-03-29T00:32:46.966Z,3.97
2023-03-29T00:35:13.983Z,3.88
2023-03-29T00:37:41.396Z,6.60
2023-03-29T00:40:10.896Z,15.93
2023-03-29T00:42:38.393Z,3.90
2023-03-29T00:45:25.625Z,4.18
2023-03-29T00:47:57.891Z,5.05
2023-03-29T00:50:29.808Z,3.28
2023-03-29T00:53:03.766Z,0.52
2023-03-29T00:55:39.140Z,9.23
2023-03-29T00:58:10.043Z,4.68
2023-03-29T01:00:52.689Z,6.20
2023-03-29T01:03:24.966Z,7.55
2023-03-29T01:05:57.321Z,5.93
2023-03-29T01:08:29.620Z,3.83
2023-03-29T01:11:11.720Z,5.95
2023-03-29T01:13:46.263Z,4.18
2023-03-29T01:16:20.245Z,6.82
2023-03-29T01:18:48.208Z,6.43
2023-03-29T01:21:37.942Z,5.25
2023-03-29T01:24:15.311Z,6.90
2023-03-29T01:27:03.216Z,4.07
2023-03-29T01:29:40.237Z,10.05
2023-03-29T01:32:16.434Z,4.97
2023-03-29T01:35:02.665Z,4.55
2023-03-29T01:37:37.641Z,9.60
2023-03-29T01:40:06.325Z,4.13
2023-03-29T01:42:52.173Z,3.05
2023-03-29T01:45:26.958Z,3.00
2023-03-29T01:48:00.094Z,3.92
2023-03-29T01:51:03.886Z,2.90
2023-03-29T01:54:01.761Z,4.70
2023-03-29T01:56:29.981Z,3.75
2023-03-29T01:59:07.759Z,7.65
2023-03-29T02:01:49.290Z,0.73
2023-03-29T02:04:22.858Z,6.03
2023-03-29T02:06:54.198Z,6.55
2023-03-29T02:09:21.802Z,11.45
2023-03-29T02:11:51.217Z,7.57
2023-03-29T02:14:18.154Z,3.65
2023-03-29T02:16:46.409Z,7.32
2023-03-29T02:19:15.449Z,5.40
2023-03-29T02:22:08.360Z,1.17
2023-03-29T02:24:36.982Z,4.93
2023-03-29T02:27:05.472Z,6.93
2023-03-29T02:29:35.442Z,6.05
2023-03-29T02:32:13.312Z,10.30
2023-03-29T02:35:18.159Z,2.45
2023-03-29T02:37:49.541Z,15.85
2023-03-29T02:40:17.156Z,5.38
2023-03-29T02:42:46.125Z,8.13
2023-03-29T02:45:17.235Z,5.97
2023-03-29T02:47:52.227Z,5.13
2023-03-29T02:50:20.603Z,2.75
2023-03-29T02:52:59.262Z,2.67
2023-03-29T02:55:34.997Z,5.03
2023-03-29T02:58:08.402Z,7.20
2023-03-29T03:00:42.482Z,3.50
2023-03-29T03:03:10.316Z,5.05
2023-03-29T03:05:38.330Z,12.63
2023-03-29T03:08:07.345Z,1.02
2023-03-29T03:10:35.307Z,4.50
2023-03-29T03:13:02.712Z,5.50
2023-03-29T03:15:31.193Z,11.32
2023-03-29T03:17:58.250Z,17.77
2023-03-29T03:20:26.606Z,7.10
2023-03-29T03:22:53.933Z,7.65
2023-03-29T03:25:21.802Z,2.85
2023-03-29T03:27:49.770Z,9.68
2023-03-29T03:30:17.267Z,4.18
2023-03-29T03:32:44.740Z,5.35
2023-03-29T03:35:12.352Z,4.72
2023-03-29T03:37:40.200Z,5.57
2023-03-29T03:40:17.439Z,15.95
2023-03-29T03:42:44.520Z,10.77
2023-03-29T03:45:12.275Z,1.92
2023-03-29T03:47:39.578Z,1.90
2023-03-29T03:50:07.520Z,0.55
2023-03-29T03:52:35.627Z,4.60
2023-03-29T03:55:02.991Z,8.45
2023-03-29T03:57:30.270Z,11.75
2023-03-29T03:59:57.575Z,5.90
2023-03-29T04:02:24.519Z,9.15
2023-03-29T04:04:52.053Z,5.68
2023-03-29T04:07:19.039Z,13.50
2023-03-29T04:09:46.406Z,6.75
2023-03-29T04:12:13.924Z,4.93
2023-03-29T04:14:40.837Z,3.15
2023-03-29T04:17:08.167Z,12.75
2023-03-29T04:19:35.776Z,7.60
2023-03-29T04:22:02.796Z,2.88
2023-03-29T04:24:29.767Z,9.88
2023-03-29T04:26:57.124Z,4.60
2023-03-29T04:29:24.065Z,7.07
2023-03-29T04:31:51.418Z,5.55
2023-03-29T04:34:18.474Z,5.85
2023-03-29T04:36:45.544Z,4.68
2023-03-29T04:39:12.848Z,8.63
2023-03-29T04:41:40.405Z,7.85
2023-03-29T04:44:08.448Z,17.92
2023-03-29T04:46:35.557Z,18.48
2023-03-29T04:49:02.924Z,9.77
2023-03-29T04:51:31.558Z,17.70
2023-03-29T04:53:58.643Z,12.30
2023-03-29T04:56:26.454Z,29.35
2023-03-29T04:58:56.581Z,18.27
2023-03-29T05:03:51.098Z,10.32
2023-03-29T05:06:18.245Z,18.05
2023-03-29T05:08:45.312Z,19.48
2023-03-29T05:11:13.728Z,8.52
2023-03-29T05:13:41.174Z,9.75
2023-03-29T05:16:08.911Z,15.48
2023-03-29T05:18:36.011Z,13.73
2023-03-29T05:21:04.333Z,16.05
2023-03-29T05:23:31.983Z,20.27
2023-03-29T05:25:59.327Z,17.10
2023-03-29T05:28:27.188Z,28.55
2023-03-29T05:31:05.852Z,43.05
2023-03-29T05:33:33.791Z,22.88
2023-03-29T05:36:02.762Z,21.83
2023-03-29T05:38:30.263Z,25.23
2023-03-29T05:40:57.650Z,34.70
2023-03-29T05:43:24.853Z,47.65
2023-03-29T05:45:56.008Z,18.90
2023-03-29T05:48:24.307Z,13.77
2023-03-29T05:50:54.597Z,27.38
2023-03-29T05:53:24.094Z,17.55
2023-03-29T05:55:51.712Z,36.70
2023-03-29T05:58:20.673Z,20.15
2023-03-29T06:00:51.855Z,33.65
2023-03-29T06:03:25.508Z,21.02
2023-03-29T06:06:00.621Z,47.05
2023-03-29T06:08:28.610Z,37.78
2023-03-29T06:11:05.078Z,43.42
2023-03-29T06:13:34.135Z,30.42
2023-03-29T06:16:01.578Z,39.05
2023-03-29T06:18:28.621Z,51.25
2023-03-29T06:20:56.066Z,20.15
2023-03-29T06:23:23.457Z,24.08
2023-03-29T06:25:53.376Z,36.35
2023-03-29T06:28:20.501Z,48.92
2023-03-29T06:30:49.099Z,31.17
2023-03-29T06:33:17.044Z,37.67
2023-03-29T06:35:46.298Z,49.97
2023-03-29T06:38:13.906Z,44.67
2023-03-29T06:40:41.190Z,26.95
2023-03-29T06:43:08.413Z,27.25
2023-03-29T06:45:37.424Z,40.03
2023-03-29T06:48:06.018Z,57.35
2023-03-29T06:50:33.443Z,33.58
2023-03-29T06:53:02.336Z,45.95
2023-03-29T06:55:29.327Z,31.15
2023-03-29T06:57:56.351Z,24.05
2023-03-29T07:00:30.002Z,18.95
2023-03-29T07:02:59.065Z,33.72
2023-03-29T07:05:29.517Z,25.55
2023-03-29T07:08:08.346Z,55.72
2023-03-29T07:10:41.288Z,33.28
2023-03-29T07:13:13.338Z,56.63
2023-03-29T07:15:41.703Z,40.13
2023-03-29T07:18:09.883Z,49.50
2023-03-29T07:20:38.980Z,55.33
2023-03-29T07:23:06.715Z,45.53
2023-03-29T07:25:34.132Z,76.20
2023-03-29T07:28:01.622Z,52.03
2023-03-29T07:30:32.047Z,49.95
2023-03-29T07:33:00.579Z,39.20
2023-03-29T07:35:28.479Z,63.80
2023-03-29T07:37:56.029Z,75.47
2023-03-29T07:40:24.218Z,57.28
2023-03-29T07:42:54.179Z,38.92
2023-03-29T07:45:26.928Z,53.85
2023-03-29T07:47:57.760Z,33.70
2023-03-29T07:50:25.820Z,33.58
2023-03-29T07:52:54.053Z,24.90
2023-03-29T07:55:21.137Z,49.55
2023-03-29T07:57:49.797Z,34.60
2023-03-29T08:00:17.594Z,63.67
2023-03-29T08:02:46.710Z,45.15
2023-03-29T08:05:19.014Z,27.00
2023-03-29T08:07:50.676Z,40.22
2023-03-29T08:10:19.991Z,39.28
2023-03-29T08:12:48.802Z,25.52
2023-03-29T08:15:16.561Z,50.92
2023-03-29T08:17:43.966Z,35.17
2023-03-29T08:20:13.477Z,47.00
2023-03-29T08:22:40.471Z,29.42
2023-03-29T08:25:08.392Z,39.50
2023-03-29T08:27:37.747Z,62.47
2023-03-29T08:30:09.571Z,55.30
2023-03-29T08:32:38.044Z,71.57
2023-03-29T08:35:06.819Z,47.33
2023-03-29T08:37:33.990Z,49.00
2023-03-29T08:40:01.502Z,51.38
2023-03-29T08:42:34.686Z,52.88
2023-03-29T08:45:14.852Z,23.58
2023-03-29T08:48:11.750Z,61.38
2023-03-29T08:50:48.039Z,92.53
2023-03-29T08:53:40.160Z,33.63
2023-03-29T08:56:15.663Z,53.88
2023-03-29T08:58:43.550Z,70.10
2023-03-29T09:01:11.640Z,41.95
2023-03-29T09:03:45.095Z,40.38
2023-03-29T09:06:13.603Z,39.90
2023-03-29T09:08:43.909Z,33.08
2023-03-29T09:11:17.837Z,77.25
2023-03-29T09:13:49.979Z,56.47
2023-03-29T09:16:20.343Z,52.13
2023-03-29T09:19:25.185Z,34.22
2023-03-29T09:22:28.185Z,51.65
2023-03-29T09:25:13.217Z,43.15
2023-03-29T09:27:47.008Z,52.75
2023-03-29T09:30:26.059Z,36.67
2023-03-29T09:32:55.157Z,49.63
2023-03-29T09:35:33.146Z,48.92
2023-03-29T09:38:01.573Z,36.20
2023-03-29T09:40:32.446Z,32.03
2023-03-29T09:43:04.321Z,32.28
2023-03-29T09:45:32.457Z,48.70
2023-03-29T09:48:05.377Z,37.08
2023-03-29T09:50:37.496Z,50.20
2023-03-29T09:53:05.620Z,28.85
2023-03-29T09:55:34.252Z,55.67
2023-03-29T09:58:03.050Z,42.17
2023-03-29T10:00:31.072Z,53.42
2023-03-29T10:03:00.432Z,42.20
2023-03-29T10:05:30.165Z,28.83
2023-03-29T10:07:59.716Z,98.55
2023-03-29T10:10:35.339Z,46.88
2023-03-29T10:13:12.468Z,32.15
2023-03-29T10:15:40.469Z,97.18
2023-03-29T10:18:11.046Z,71.80
2023-03-29T10:20:40.823Z,49.88
2023-03-29T10:23:10.536Z,46.63
2023-03-29T10:25:42.987Z,120.05
2023-03-29T10:28:19.358Z,105.43
2023-03-29T10:30:48.797Z,96.50
2023-03-29T10:33:20.794Z,126.45
2023-03-29T10:35:50.531Z,42.20
2023-03-29T10:38:20.053Z,52.58
2023-03-29T10:40:49.236Z,36.05
2023-03-29T10:43:39.793Z,36.70
2023-03-29T10:46:20.342Z,51.30
2023-03-29T10:48:49.685Z,36.38
2023-03-29T10:51:18.398Z,40.20
2023-03-29T10:53:46.738Z,27.80
2023-03-29T10:56:14.699Z,44.00
2023-03-29T10:58:42.502Z,39.70
2023-03-29T11:01:23.680Z,39.03
2023-03-29T11:03:54.874Z,47.10
2023-03-29T11:06:31.946Z,48.42
2023-03-29T11:09:03.201Z,35.38
2023-03-29T11:12:01.059Z,46.88
2023-03-29T11:14:45.234Z,73.18
2023-03-29T11:17:23.776Z,66.13
2023-03-29T11:19:51.714Z,61.35
2023-03-29T11:22:41.118Z,45.67
2023-03-29T11:25:34.487Z,39.17
2023-03-29T11:28:03.190Z,62.53
2023-03-29T11:30:36.355Z,60.33
2023-03-29T11:33:32.393Z,45.30
2023-03-29T11:36:06.500Z,50.42
2023-03-29T11:38:53.162Z,26.38
2023-03-29T11:41:26.060Z,46.13
2023-03-29T11:44:22.821Z,31.90
2023-03-29T11:46:56.990Z,41.63
2023-03-29T11:49:27.890Z,37.35
2023-03-29T11:52:04.394Z,32.50
2023-03-29T11:54:47.588Z,36.13
2023-03-29T11:57:44.189Z,38.15
2023-03-29T12:00:15.866Z,44.72
2023-03-29T12:02:46.323Z,41.05
2023-03-29T12:05:34.504Z,41.45
2023-03-29T12:08:08.055Z,103.32
2023-03-29T12:10:44.188Z,79.22
2023-03-29T12:13:30.288Z,94.00
2023-03-29T12:16:30.200Z,40.05
2023-03-29T12:19:02.609Z,62.80
2023-03-29T12:21:30.647Z,30.85
2023-03-29T12:24:00.512Z,39.83
2023-03-29T12:26:35.151Z,69.18
2023-03-29T12:29:09.565Z,36.50
2023-03-29T12:32:07.950Z,48.55
2023-03-29T12:34:57.039Z,36.70
2023-03-29T12:37:51.540Z,60.15
2023-03-29T12:40:20.944Z,40.10
2023-03-29T12:43:04.971Z,35.13
2023-03-29T12:45:42.902Z,93.28
2023-03-29T12:48:17.663Z,36.38
2023-03-29T12:50:46.132Z,92.88
2023-03-29T12:53:25.355Z,34.05
2023-03-29T12:55:56.016Z,45.42
2023-03-29T12:58:27.807Z,68.38
2023-03-29T13:01:10.276Z,36.22
2023-03-29T13:03:40.020Z,25.48
2023-03-29T13:06:13.146Z,62.15
2023-03-29T13:08:45.231Z,46.55
2023-03-29T13:11:25.987Z,73.95
2023-03-29T13:13:53.392Z,28.63
2023-03-29T13:16:29.336Z,53.15
2023-03-29T13:19:11.878Z,51.30
2023-03-29T13:22:06.328Z,40.10
2023-03-29T13:24:50.591Z,22.83
2023-03-29T13:27:26.535Z,39.17
2023-03-29T13:29:59.057Z,22.83
2023-03-29T13:32:41.252Z,32.45
2023-03-29T13:35:23.395Z,37.88
2023-03-29T13:38:20.738Z,32.90
2023-03-29T13:41:27.864Z,36.58
2023-03-29T13:43:56.447Z,42.28
2023-03-29T13:46:38.084Z,17.00
2023-03-29T13:49:27.336Z,31.85
2023-03-29T13:51:55.086Z,24.77
2023-03-29T13:54:41.944Z,30.13
2023-03-29T13:57:09.658Z,71.90
2023-03-29T14:00:00.818Z,66.10
2023-03-29T14:02:28.682Z,55.67
2023-03-29T14:04:57.575Z,59.00
2023-03-29T14:07:26.578Z,35.90
2023-03-29T14:09:58.707Z,35.42
2023-03-29T14:12:27.407Z,25.85
2023-03-29T14:14:59.674Z,25.92
2023-03-29T14:17:27.890Z,41.97
2023-03-29T14:19:59.038Z,14.20
2023-03-29T14:22:30.894Z,20.02
2023-03-29T14:25:06.150Z,16.38
2023-03-29T14:27:37.326Z,24.30
2023-03-29T14:30:21.767Z,25.00
2023-03-29T14:32:51.684Z,61.67
2023-03-29T14:35:20.068Z,61.85
2023-03-29T14:37:49.414Z,64.88
2023-03-29T14:40:19.297Z,38.38
2023-03-29T14:42:48.739Z,48.95
2023-03-29T14:45:18.072Z,20.20
2023-03-29T14:47:47.771Z,25.15
2023-03-29T14:50:24.572Z,51.22
2023-03-29T14:52:52.740Z,66.15
2023-03-29T14:55:23.841Z,32.78
2023-03-29T14:57:52.858Z,33.97
2023-03-29T15:00:26.684Z,56.88
2023-03-29T15:02:59.532Z,28.95
2023-03-29T15:05:37.278Z,43.17
2023-03-29T15:08:07.497Z,69.25
2023-03-29T15:10:37.519Z,74.05
2023-03-29T15:18:08.793Z,16.33
2023-03-29T15:20:39.542Z,14.90
2023-03-29T15:23:22.076Z,68.47
2023-03-29T15:25:53.463Z,54.97
2023-03-29T15:28:35.487Z,47.10
2023-03-29T15:31:12.211Z,33.95
2023-03-29T15:33:42.280Z,23.23
2023-03-29T15:38:44.775Z,29.33
2023-03-29T15:41:15.461Z,11.82
2023-03-29T15:43:43.351Z,9.75
2023-03-29T15:46:14.359Z,9.07
2023-03-29T15:48:42.232Z,15.18
2023-03-29T15:51:12.054Z,15.95
2023-03-29T15:53:39.768Z,15.48
2023-03-29T15:56:10.254Z,7.30
2023-03-29T15:58:38.298Z,18.38
2023-03-29T16:01:34.071Z,10.00
2023-03-29T16:04:02.928Z,32.08
2023-03-29T16:06:30.793Z,67.88
2023-03-29T16:08:58.540Z,94.88
2023-03-29T16:11:27.210Z,71.80
2023-03-29T16:13:55.477Z,19.00
2023-03-29T16:16:23.491Z,24.58
2023-03-29T16:18:51.427Z,59.03
2023-03-29T16:21:19.847Z,62.28
2023-03-29T16:23:48.199Z,20.00
2023-03-29T16:26:17.094Z,68.10
2023-03-29T16:28:44.992Z,75.95
2023-03-29T16:31:13.609Z,8.27
2023-03-29T16:33:42.253Z,22.83
2023-03-29T16:36:10.824Z,18.27
2023-03-29T16:38:38.463Z,23.25
2023-03-29T16:41:07.359Z,48.17
2023-03-29T16:43:35.526Z,8.98
2023-03-29T16:46:04.098Z,6.22
2023-03-29T16:48:32.145Z,7.03
2023-03-29T16:50:59.928Z,12.45
2023-03-29T16:53:28.577Z,10.52
2023-03-29T16:55:56.784Z,26.80
2023-03-29T16:58:24.787Z,23.63
2023-03-29T17:00:53.171Z,17.48
2023-03-29T17:03:24.018Z,14.82
2023-03-29T17:05:52.974Z,10.98
2023-03-29T17:08:21.218Z,11.77
2023-03-29T17:10:58.141Z,10.35
2023-03-29T17:13:26.098Z,6.32
2023-03-29T17:15:54.751Z,16.08
2023-03-29T17:18:23.181Z,6.45
2023-03-29T17:20:51.606Z,4.00
2023-03-29T17:23:19.617Z,5.80
2023-03-29T17:25:47.266Z,16.55
2023-03-29T17:28:14.949Z,8.05
2023-03-29T17:30:42.702Z,5.13
2023-03-29T17:33:11.302Z,8.57
2023-03-29T17:35:39.809Z,11.98
2023-03-29T17:38:07.539Z,5.63
2023-03-29T17:40:35.258Z,9.00
2023-03-29T17:43:02.975Z,9.48
2023-03-29T17:45:30.903Z,6.07
2023-03-29T17:47:58.621Z,7.95
2023-03-29T17:50:26.350Z,4.47
2023-03-29T17:52:54.046Z,7.60
2023-03-29T17:55:21.883Z,7.60
2023-03-29T17:57:49.610Z,9.55
2023-03-29T18:00:17.425Z,6.10
2023-03-29T18:02:45.267Z,12.77
2023-03-29T18:05:13.394Z,8.73
2023-03-29T18:07:41.137Z,6.78
2023-03-29T18:10:09.185Z,23.75
2023-03-29T18:12:37.393Z,11.73
2023-03-29T18:15:05.257Z,5.45
2023-03-29T18:17:32.930Z,11.07
2023-03-29T18:20:00.735Z,11.10
2023-03-29T18:22:28.774Z,13.38
2023-03-29T18:24:56.719Z,12.10
2023-03-29T18:27:25.451Z,12.65
2023-03-29T18:29:55.331Z,11.52
2023-03-29T18:32:22.899Z,9.23
2023-03-29T18:34:51.260Z,6.57
2023-03-29T18:37:18.916Z,9.43
2023-03-29T18:39:48.369Z,12.02
2023-03-29T18:42:16.005Z,7.57
2023-03-29T18:44:43.688Z,6.20
2023-03-29T18:47:11.278Z,7.60
2023-03-29T18:49:42.192Z,7.25
2023-03-29T18:52:09.936Z,10.50
2023-03-29T18:54:38.331Z,8.60
2023-03-29T18:57:05.970Z,9.88
2023-03-29T18:59:35.993Z,8.00
2023-03-29T19:02:03.983Z,6.45
2023-03-29T19:04:31.743Z,8.82
2023-03-29T19:07:01.428Z,8.15
2023-03-29T19:09:29.590Z,6.57
2023-03-29T19:11:57.205Z,16.52
2023-03-29T19:14:25.385Z,7.78
2023-03-29T19:16:53.673Z,7.47
2023-03-29T19:19:22.796Z,7.88
2023-03-29T19:21:50.554Z,9.10
2023-03-29T19:24:18.330Z,6.88
2023-03-29T19:26:48.002Z,8.20
2023-03-29T19:29:15.821Z,8.30
2023-03-29T19:31:43.690Z,9.65
2023-03-29T19:34:12.381Z,8.27
2023-03-29T19:36:40.235Z,5.95
2023-03-29T19:39:07.947Z,10.13
2023-03-29T19:41:35.573Z,12.00
2023-03-29T19:44:03.414Z,27.83
2023-03-29T19:46:31.302Z,43.17
2023-03-29T19:49:00.565Z,47.60
2023-03-29T19:51:28.827Z,27.52
2023-03-29T19:53:56.608Z,96.55
2023-03-29T19:56:25.715Z,185.90
2023-03-29T19:58:53.948Z,156.23
2023-03-29T20:01:21.747Z,156.38
2023-03-29T20:03:49.610Z,144.48
2023-03-29T20:06:18.244Z,164.77
2023-03-29T20:08:46.241Z,90.78
2023-03-29T20:11:14.474Z,55.45
2023-03-29T20:13:42.826Z,59.03
2023-03-29T20:16:11.785Z,61.65
2023-03-29T20:18:39.836Z,48.78
2023-03-29T20:21:08.324Z,35.67
2023-03-29T20:23:36.608Z,30.95
2023-03-29T20:26:04.269Z,39.17
2023-03-29T20:28:32.142Z,45.75
2023-03-29T20:31:03.769Z,70.28
2023-03-29T20:33:32.755Z,91.68
2023-03-29T20:36:00.506Z,85.50
2023-03-29T20:38:28.251Z,68.53
2023-03-29T20:40:56.184Z,50.35
2023-03-29T20:43:24.441Z,55.90
2023-03-29T20:45:53.867Z,42.50
2023-03-29T20:48:23.560Z,40.80
2023-03-29T20:50:51.942Z,44.08
2023-03-29T20:53:20.879Z,44.85
2023-03-29T20:55:48.759Z,53.38
2023-03-29T20:58:16.389Z,48.05
2023-03-29T21:00:44.457Z,55.45
2023-03-29T21:03:12.396Z,35.53
2023-03-29T21:05:40.367Z,41.40
2023-03-29T21:08:08.577Z,36.40
2023-03-29T21:10:36.641Z,39.25
2023-03-29T21:13:04.351Z,54.78
2023-03-29T21:15:32.259Z,31.83
2023-03-29T21:17:59.923Z,26.40
2023-03-29T21:20:27.811Z,24.73
2023-03-29T21:22:55.509Z,22.35
2023-03-29T21:25:25.917Z,15.68
2023-03-29T21:27:53.611Z,20.52
2023-03-29T21:30:21.363Z,24.13
2023-03-29T21:32:49.094Z,24.92
2023-03-29T21:35:16.815Z,31.02
2023-03-29T21:37:44.601Z,19.35
2023-03-29T21:40:12.743Z,38.35
2023-03-29T21:42:40.357Z,37.60
2023-03-29T21:45:08.406Z,59.63
2023-03-29T21:47:35.954Z,77.20
2023-03-29T21:50:03.693Z,72.00
2023-03-29T21:52:31.665Z,61.80
2023-03-29T21:54:59.363Z,62.58
2023-03-29T21:57:26.991Z,61.45
2023-03-29T21:59:54.707Z,45.75
2023-03-29T22:02:22.462Z,44.13
2023-03-29T22:04:50.373Z,45.95
2023-03-29T22:07:17.955Z,47.55
2023-03-29T22:09:46.670Z,39.13
2023-03-29T22:12:14.276Z,47.15
2023-03-29T22:14:41.975Z,80.18
2023-03-29T22:17:09.653Z,113.72
2023-03-29T22:19:41.866Z,129.77
2023-03-29T22:22:14.125Z,126.45
2023-03-29T22:24:42.453Z,114.10
2023-03-29T22:27:10.598Z,91.05
2023-03-29T22:29:38.231Z,90.28
2023-03-29T22:32:07.027Z,77.82
2023-03-29T22:34:34.862Z,62.28
2023-03-29T22:37:02.696Z,56.08
2023-03-29T22:39:30.304Z,54.03
2023-03-29T22:41:57.943Z,59.15
2023-03-29T22:44:25.921Z,51.35
2023-03-29T22:46:53.879Z,52.45
2023-03-29T22:49:21.611Z,38.33
2023-03-29T22:51:49.243Z,36.13
2023-03-29T22:54:17.071Z,12.93
2023-03-29T22:56:44.791Z,19.58
2023-03-29T22:59:12.398Z,12.82
2023-03-29T23:01:40.116Z,12.95
2023-03-29T23:04:07.832Z,8.93
2023-03-29T23:06:35.708Z,8.20
2023-03-29T23:09:03.483Z,15.02
2023-03-29T23:11:31.217Z,14.27
2023-03-29T23:13:58.846Z,20.17
2023-03-29T23:16:26.736Z,20.35
2023-03-29T23:18:54.257Z,21.40
2023-03-29T23:21:22.210Z,15.48
2023-03-29T23:23:49.850Z,14.73
2023-03-29T23:26:17.700Z,8.35
2023-03-29T23:28:45.373Z,10.57
2023-03-29T23:31:18.239Z,8.02
2023-03-29T23:33:46.120Z,11.40
2023-03-29T23:36:15.095Z,8.27
2023-03-29T23:38:42.698Z,8.10
2023-03-29T23:41:13.068Z,6.70
2023-03-29T23:43:41.895Z,6.70
2023-03-29T23:46:15.515Z,5.63
2023-03-29T23:48:47.423Z,13.07
2023-03-29T23:51:15.224Z,6.10
2023-03-29T23:53:43.001Z,23.77
2023-03-29T23:56:10.467Z,30.67
2023-03-29T23:58:38.717Z,10.05
